Time;durP1;ratioP1;P1;durP2;ratioP2;P2;SDS_P1;SDS_P2;PMS_P1;PMS_P2;Temp;Humidity;BMP_temperature;BMP_pressure;BME280_temperature;BME280_humidity;BME280_pressure;Samples;Min_cycle;Max_cycle;Signal;HPM_P1;HPM_P2
2023/09/21 00:00:08;;;;;;;0.82;0.35;;;;;;;20.71;79.53;99699.81;4909320;29;20092;-67
2023/09/21 00:02:38;;;;;;;2.78;1.15;;;;;;;20.87;78.99;99699.56;4915878;29;20040;-67
2023/09/21 00:05:04;;;;;;;1.00;0.57;;;;;;;20.67;79.05;99692.47;4916714;29;20031;-67
2023/09/21 00:07:31;;;;;;;1.27;0.50;;;;;;;20.44;80.57;99692.19;4916435;29;20155;-67
2023/09/21 00:09:56;;;;;;;1.17;0.35;;;;;;;20.59;80.05;99690.47;4913454;29;20630;-67
2023/09/21 00:12:22;;;;;;;0.77;0.68;;;;;;;20.69;79.68;99690.06;4914826;29;20040;-67
2023/09/21 00:14:47;;;;;;;1.73;0.70;;;;;;;;;;4917198;29;20040;-66
2023/09/21 00:17:13;;;;;;;2.38;0.80;;;;;;;20.63;79.47;99691.09;4911839;29;20367;-66
2023/09/21 00:19:38;;;;;;;0.77;0.32;;;;;;;20.72;79.40;99688.41;4913843;29;20061;-67
2023/09/21 00:22:04;;;;;;;0.90;0.60;;;;;;;20.57;78.96;99687.41;4912798;29;20068;-67
2023/09/21 00:24:30;;;;;;;0.50;0.50;;;;;;;20.58;79.14;99686.94;4913858;29;20044;-67
2023/09/21 00:26:56;;;;;;;0.70;0.50;;;;;;;20.45;79.69;99677.28;4913727;29;20540;-66
2023/09/21 00:29:22;;;;;;;1.23;0.40;;;;;;;20.52;79.38;99682.47;4915317;29;20043;-67
2023/09/21 00:31:48;;;;;;;1.33;0.50;;;;;;;20.55;79.28;99678.88;4909541;29;20040;-66
2023/09/21 00:34:13;;;;;;;1.27;0.60;;;;;;;20.42;79.79;99678.91;4914803;29;20032;-67
2023/09/21 00:36:42;;;;;;;1.35;0.88;;;;;;;20.34;80.35;99671.44;4916076;29;20036;-67
2023/09/21 00:39:12;;;;;;;1.67;0.68;;;;;;;20.49;79.77;99670.47;4913778;29;20029;-67
2023/09/21 00:41:37;;;;;;;0.30;0.30;;;;;;;20.29;80.35;99664.56;4927990;29;20032;-66
2023/09/21 00:44:08;;;;;;;1.00;0.60;;;;;;;20.41;80.37;99665.69;4912586;29;20063;-67
2023/09/21 00:46:36;;;;;;;0.40;0.40;;;;;;;20.47;79.81;99666.66;4913374;29;20405;-67
2023/09/21 00:49:04;;;;;;;2.67;0.50;;;;;;;20.41;79.50;99662.97;4914664;29;20036;-66
2023/09/21 00:51:40;;;;;;;1.42;0.63;;;;;;;20.48;79.29;99654.50;4914587;29;20107;-67
2023/09/21 00:54:12;;;;;;;0.55;0.50;;;;;;;20.35;79.87;99654.56;4912092;29;20036;-66
2023/09/21 00:56:39;;;;;;;0.45;0.30;;;;;;;20.26;79.99;99651.78;4914697;29;20050;-67
2023/09/21 00:59:05;;;;;;;0.60;0.55;;;;;;;19.85;81.69;99656.69;4914799;29;20040;-66
2023/09/21 01:01:33;;;;;;;0.57;0.50;;;;;;;20.02;81.36;99645.16;4910305;29;20051;-67
2023/09/21 01:04:00;;;;;;;1.40;0.60;;;;;;;20.14;80.52;99655.28;4912144;29;20036;-67
2023/09/21 01:06:26;;;;;;;0.65;0.55;;;;;;;20.15;80.78;99650.59;4913443;29;20095;-67
2023/09/21 01:08:52;;;;;;;1.88;0.63;;;;;;;20.22;80.30;99651.13;4914693;29;20048;-67
2023/09/21 01:11:20;;;;;;;0.80;0.70;;;;;;;20.29;80.10;99650.88;4913055;29;20454;-67
2023/09/21 01:13:47;;;;;;;0.75;0.55;;;;;;;20.29;79.91;99659.06;4912111;29;20533;-67
2023/09/21 01:16:13;;;;;;;1.05;0.60;;;;;;;20.12;79.95;99646.00;4912918;29;20040;-68
2023/09/21 01:18:41;;;;;;;0.68;0.50;;;;;;;19.92;81.13;99642.81;4912634;29;20032;-67
2023/09/21 01:21:10;;;;;;;0.85;0.38;;;;;;;20.00;81.46;99642.09;4912841;29;20039;-66
2023/09/21 01:23:37;;;;;;;1.35;0.77;;;;;;;20.03;80.82;99635.78;4891003;29;20036;-67
2023/09/21 01:26:02;;;;;;;0.50;0.38;;;;;;;20.09;80.75;99644.16;4913114;29;20413;-66
2023/09/21 01:28:29;;;;;;;1.17;0.50;;;;;;;19.87;81.37;99637.88;4912292;29;20024;-66
2023/09/21 01:30:58;;;;;;;2.13;0.82;;;;;;;19.97;81.05;99631.28;4912627;29;20048;-67
2023/09/21 01:33:24;;;;;;;0.73;0.38;;;;;;;19.83;81.47;99639.97;4912106;29;20055;-67
2023/09/21 01:35:49;;;;;;;0.85;0.50;;;;;;;19.82;81.42;99641.19;4913238;29;20080;-67
2023/09/21 01:38:15;;;;;;;0.95;0.70;;;;;;;19.92;81.05;99640.81;4913655;29;20047;-67
2023/09/21 01:40:42;;;;;;;1.45;0.80;;;;;;;19.83;81.49;99634.50;4897463;29;20571;-67
2023/09/21 01:43:09;;;;;;;1.10;0.60;;;;;;;19.95;81.06;99630.97;4913820;29;20040;-67
2023/09/21 01:45:37;;;;;;;1.23;0.70;;;;;;;20.01;80.51;99626.47;4909276;29;20337;-67
2023/09/21 01:48:16;;;;;;;1.92;0.57;;;;;;;19.69;80.91;99627.56;4914448;29;20159;-67
2023/09/21 01:50:45;;;;;;;1.20;0.70;;;;;;;19.45;83.24;99618.97;4908658;29;20504;-67
2023/09/21 01:53:11;;;;;;;0.55;0.45;;;;;;;19.63;82.39;99615.66;4911931;29;20043;-67
2023/09/21 01:55:37;;;;;;;0.77;0.60;;;;;;;19.55;82.55;99612.41;4914803;29;20035;-67
2023/09/21 01:58:04;;;;;;;2.05;0.60;;;;;;;19.67;81.89;99613.56;4913258;29;20103;-67
2023/09/21 02:00:36;;;;;;;0.50;0.50;;;;;;;19.65;81.80;99608.56;4913289;29;20043;-67
2023/09/21 02:03:22;;;;;;;0.95;0.70;;;;;;;19.57;81.89;99604.53;4913349;29;20100;-66
2023/09/21 02:05:47;;;;;;;0.57;0.50;;;;;;;19.68;81.70;99604.19;4841475;29;20181;-66
2023/09/21 02:08:18;;;;;;;0.40;0.28;;;;;;;19.69;81.18;99598.25;4842723;29;20114;-67
2023/09/21 02:10:49;;;;;;;0.52;0.43;;;;;;;19.64;80.97;99587.91;4854907;29;20400;-67
2023/09/21 02:13:15;;;;;;;0.55;0.40;;;;;;;19.66;81.28;99590.97;4854938;29;20154;-67
2023/09/21 02:15:43;;;;;;;1.67;0.80;;;;;;;19.41;82.08;99585.56;4840506;29;20120;-67
2023/09/21 02:18:11;;;;;;;0.68;0.50;;;;;;;19.37;82.58;99593.13;4855804;29;20048;-66
2023/09/21 02:20:42;;;;;;;0.75;0.40;;;;;;;19.53;81.75;99584.75;4854574;29;20057;-67
2023/09/21 02:23:07;;;;;;;0.45;0.40;;;;;;;19.65;81.33;99583.97;4853436;29;20056;-67
2023/09/21 02:25:35;;;;;;;1.65;0.50;;;;;;;19.67;81.10;99576.09;4855873;29;20045;-67
2023/09/21 02:28:09;;;;;;;1.08;0.60;;;;;;;19.74;80.95;99566.91;4840710;29;20611;-67
2023/09/21 02:30:36;;;;;;;0.80;0.50;;;;;;;19.60;81.33;99570.88;4832735;29;20600;-67
2023/09/21 02:33:04;;;;;;;2.25;0.80;;;;;;;19.57;81.30;99562.78;4854314;29;20041;-65
2023/09/21 02:35:33;;;;;;;1.00;0.70;;;;;;;19.29;82.43;99563.72;4855698;29;20894;-67
2023/09/21 02:37:58;;;;;;;2.45;0.60;;;;;;;19.46;82.05;99562.38;4853334;29;20470;-67
2023/09/21 02:40:24;;;;;;;0.88;0.55;;;;;;;19.42;82.41;99567.97;4853253;29;20121;-66
2023/09/21 02:42:52;;;;;;;1.38;0.68;;;;;;;19.58;81.55;99556.13;4890280;29;20051;-67
2023/09/21 02:45:19;;;;;;;1.00;0.52;;;;;;;19.71;81.02;99557.59;4912323;29;20505;-67
2023/09/21 02:47:46;;;;;;;1.88;0.52;;;;;;;19.66;80.79;99549.97;4893031;29;20036;-67
2023/09/21 02:50:14;;;;;;;0.38;0.38;;;;;;;19.58;81.03;99554.16;4909262;29;20036;-66
2023/09/21 02:53:08;;;;;;;1.00;0.60;;;;;;;19.64;81.07;99557.09;4909970;29;20177;-67
2023/09/21 02:55:36;;;;;;;1.15;0.60;;;;;;;19.59;80.81;99544.75;4906615;29;20410;-67
2023/09/21 02:58:10;;;;;;;0.60;0.40;;;;;;;19.68;80.37;99542.09;4930008;29;20463;-66
2023/09/21 03:00:46;;;;;;;2.33;0.98;;;;;;;19.29;81.96;99537.16;4929373;29;20068;-67
2023/09/21 03:03:14;;;;;;;4.88;0.65;;;;;;;19.34;81.91;99535.88;4925711;29;20032;-67
2023/09/21 03:05:41;;;;;;;0.90;0.57;;;;;;;19.38;81.90;99531.81;4913296;29;20044;-67
2023/09/21 03:08:13;;;;;;;0.45;0.32;;;;;;;19.29;82.31;99530.94;4914967;29;20059;-67
2023/09/21 03:10:44;;;;;;;0.98;0.60;;;;;;;19.30;82.22;99530.50;4916299;29;20047;-67
2023/09/21 03:13:17;;;;;;;0.73;0.50;;;;;;;19.33;82.19;99526.94;4914971;29;20064;-65
2023/09/21 03:15:44;;;;;;;0.40;0.40;;;;;;;19.38;81.56;99529.09;4916692;29;20032;-67
2023/09/21 03:18:10;;;;;;;0.65;0.50;;;;;;;19.25;82.59;99522.88;4914181;29;20549;-67
2023/09/21 03:20:36;;;;;;;0.55;0.40;;;;;;;19.39;81.85;99519.69;4912243;29;20171;-67
2023/09/21 03:23:09;;;;;;;0.50;0.40;;;;;;;19.51;81.36;99524.34;4911993;29;20048;-67
2023/09/21 03:25:45;;;;;;;1.15;0.57;;;;;;;19.44;80.88;99530.06;4915958;29;20175;-67
2023/09/21 03:28:13;;;;;;;0.52;0.32;;;;;;;19.23;81.96;99528.00;4910053;29;20472;-66
2023/09/21 03:30:46;;;;;;;1.23;0.70;;;;;;;19.20;81.94;99520.69;4917114;29;20032;-66
2023/09/21 03:33:12;;;;;;;0.70;0.50;;;;;;;19.05;82.99;99521.63;4930608;29;20490;-67
2023/09/21 03:35:38;;;;;;;3.22;0.40;;;;;;;19.09;83.21;99519.50;4898530;29;20031;-67
2023/09/21 03:38:23;;;;;;;1.25;0.65;;;;;;;19.13;82.64;99520.16;4914385;29;20068;-67
2023/09/21 03:40:49;;;;;;;1.77;0.60;;;;;;;19.02;83.14;99512.34;4913894;29;20040;-66
2023/09/21 03:43:14;;;;;;;1.40;0.70;;;;;;;19.06;82.85;99512.22;4914442;29;20039;-67
2023/09/21 03:45:42;;;;;;;1.25;0.50;;;;;;;19.13;82.69;99509.25;4916947;29;20103;-66
2023/09/21 03:48:08;;;;;;;0.88;0.55;;;;;;;19.15;82.47;99506.84;4899245;29;20132;-67
2023/09/21 03:50:36;;;;;;;0.40;0.30;;;;;;;18.94;83.28;99505.56;4915414;29;20080;-66
2023/09/21 03:53:04;;;;;;;0.85;0.60;;;;;;;19.04;83.11;99509.16;4916365;29;20032;-67
2023/09/21 03:55:30;;;;;;;0.85;0.63;;;;;;;18.98;83.21;99503.50;4912009;29;20045;-67
2023/09/21 03:57:55;;;;;;;2.78;0.50;;;;;;;19.18;82.44;99495.06;4915800;29;20642;-66
2023/09/21 04:00:26;;;;;;;1.27;0.68;;;;;;;19.23;81.72;99499.94;4913795;29;20068;-67
2023/09/21 04:02:53;;;;;;;1.20;0.50;;;;;;;19.06;82.58;99490.38;4912378;29;20032;-66
2023/09/21 04:05:19;;;;;;;0.73;0.50;;;;;;;19.02;82.47;99489.72;4912120;29;20524;-67
2023/09/21 04:07:46;;;;;;;0.50;0.50;;;;;;;18.88;83.22;99489.00;4914838;29;20155;-67
2023/09/21 04:10:12;;;;;;;0.47;0.38;;;;;;;19.14;82.02;99486.22;4913944;29;20544;-67
2023/09/21 04:12:40;;;;;;;1.10;0.55;;;;;;;18.99;81.95;99501.53;4911339;29;20036;-67
2023/09/21 04:15:07;;;;;;;0.50;0.30;;;;;;;18.94;82.43;99491.94;4930852;29;20417;-67
2023/09/21 04:17:32;;;;;;;1.48;1.08;;;;;;;18.99;82.73;99479.72;4915277;29;20084;-66
2023/09/21 04:19:58;;;;;;;1.50;0.70;;;;;;;18.98;82.86;99484.41;4915255;29;20040;-65
2023/09/21 04:22:23;;;;;;;1.17;0.60;;;;;;;18.97;82.47;99482.84;4909555;29;20068;-67
2023/09/21 04:24:49;;;;;;;1.98;0.93;;;;;;;19.04;82.00;99476.41;4914977;29;20031;-67
2023/09/21 04:27:14;;;;;;;1.75;0.50;;;;;;;18.99;81.87;99475.00;4916606;29;20032;-66
2023/09/21 04:29:40;;;;;;;0.80;0.55;;;;;;;19.00;82.25;99471.06;4912048;29;20111;-67
2023/09/21 04:32:05;;;;;;;0.55;0.45;;;;;;;18.96;81.86;99470.41;4914225;29;20040;-65
2023/09/21 04:34:33;;;;;;;0.30;0.22;;;;;;;18.95;82.09;99468.88;4912852;29;20621;-66
2023/09/21 04:36:59;;;;;;;0.80;0.50;;;;;;;18.91;82.54;99465.53;4911414;29;20058;-66
2023/09/21 04:39:24;;;;;;;1.52;0.57;;;;;;;19.00;82.19;99464.84;4926610;29;20028;-67
2023/09/21 04:41:51;;;;;;;1.75;0.63;;;;;;;18.83;82.65;99470.44;4912377;29;20402;-67
2023/09/21 04:44:16;;;;;;;1.23;0.70;;;;;;;19.14;80.89;99469.84;4913976;29;20047;-67
2023/09/21 04:46:42;;;;;;;1.38;0.68;;;;;;;19.14;80.83;99465.16;4915101;29;20064;-66
2023/09/21 04:49:08;;;;;;;1.80;0.68;;;;;;;19.13;80.94;99469.06;4914160;29;20127;-66
2023/09/21 04:51:34;;;;;;;1.27;0.60;;;;;;;19.12;81.01;99466.78;4911075;29;20159;-67
2023/09/21 04:54:00;;;;;;;1.60;0.60;;;;;;;19.15;80.70;99460.44;4913723;29;20520;-67
2023/09/21 04:56:26;;;;;;;4.10;0.90;;;;;;;19.16;80.42;99465.47;4914218;29;20044;-67
2023/09/21 04:58:55;;;;;;;0.70;0.47;;;;;;;19.11;80.47;99463.28;4893099;29;20721;-67
2023/09/21 05:01:25;;;;;;;0.88;0.57;;;;;;;19.20;80.53;99463.34;4909627;29;20056;-67
2023/09/21 05:03:50;;;;;;;1.13;0.80;;;;;;;19.12;80.22;99466.78;4911021;29;20036;-67
2023/09/21 05:06:18;;;;;;;0.77;0.55;;;;;;;19.15;80.17;99466.66;4911946;29;20028;-67
2023/09/21 05:08:44;;;;;;;0.68;0.40;;;;;;;19.07;80.79;99464.59;4905152;29;20027;-66
2023/09/21 05:11:10;;;;;;;0.93;0.70;;;;;;;18.89;80.79;99462.47;4910702;29;20537;-67
2023/09/21 05:13:36;;;;;;;1.20;0.40;;;;;;;19.13;80.19;99457.38;4903565;29;20528;-67
2023/09/21 05:16:03;;;;;;;0.60;0.57;;;;;;;19.24;79.91;99457.78;4907432;29;20056;-65
2023/09/21 05:18:29;;;;;;;0.95;0.50;;;;;;;19.28;79.40;99464.63;4903870;29;20063;-67
2023/09/21 05:20:55;;;;;;;0.73;0.43;;;;;;;19.30;79.20;99464.97;4906452;29;20032;-66
2023/09/21 05:23:20;;;;;;;0.98;0.50;;;;;;;19.27;79.48;99468.59;4908992;29;20044;-66
2023/09/21 05:25:46;;;;;;;1.02;0.63;;;;;;;19.14;79.44;99464.38;4905077;29;20048;-66
2023/09/21 05:28:11;;;;;;;1.33;0.45;;;;;;;19.21;79.84;99464.91;4910265;29;20016;-67
2023/09/21 05:30:37;;;;;;;1.35;0.68;;;;;;;19.31;79.66;99471.97;4912040;29;20047;-67
2023/09/21 05:33:03;;;;;;;0.43;0.40;;;;;;;19.36;78.99;99463.22;4913044;29;20036;-67
2023/09/21 05:35:29;;;;;;;0.90;0.40;;;;;;;19.38;79.07;99452.63;4912641;29;20080;-67
2023/09/21 05:37:54;;;;;;;1.02;0.38;;;;;;;19.41;79.01;99459.94;4914514;29;20071;-67
2023/09/21 05:40:21;;;;;;;1.02;0.77;;;;;;;19.35;78.73;99450.78;4904855;29;20071;-66
2023/09/21 05:42:47;;;;;;;1.75;0.70;;;;;;;19.32;79.11;99453.59;4910601;29;20032;-66
2023/09/21 05:45:13;;;;;;;1.70;0.60;;;;;;;19.29;79.21;99452.53;4911739;29;20046;-66
2023/09/21 05:47:38;;;;;;;1.10;0.82;;;;;;;19.40;78.82;99454.91;4902251;29;20040;-67
2023/09/21 05:50:05;;;;;;;1.48;0.60;;;;;;;19.53;77.92;99456.38;4908426;29;20024;-67
2023/09/21 05:52:35;;;;;;;0.60;0.60;;;;;;;19.60;78.22;99453.41;4915340;29;20131;-66
2023/09/21 05:55:01;;;;;;;0.85;0.50;;;;;;;19.51;77.95;99456.06;4907413;29;20036;-66
2023/09/21 05:57:27;;;;;;;1.20;0.55;;;;;;;19.47;78.50;99449.94;4912706;29;20516;-66
2023/09/21 05:59:53;;;;;;;1.33;0.60;;;;;;;19.41;78.21;99448.25;4914661;29;20123;-66
2023/09/21 06:02:19;;;;;;;0.73;0.35;;;;;;;19.53;77.73;99444.69;4908294;29;20122;-66
2023/09/21 06:04:46;;;;;;;2.00;0.60;;;;;;;19.50;77.70;99446.34;4912788;29;20066;-66
2023/09/21 06:07:12;;;;;;;6.25;0.63;;;;;;;19.53;77.69;99439.25;4911404;29;20079;-66
2023/09/21 06:09:37;;;;;;;1.33;1.10;;;;;;;19.55;77.66;99443.03;4912539;29;20441;-66
2023/09/21 06:12:05;;;;;;;0.68;0.50;;;;;;;19.55;77.52;99442.28;4912174;29;20059;-67
2023/09/21 06:14:31;;;;;;;2.13;0.70;;;;;;;19.51;77.54;99439.66;4913306;29;20414;-66
2023/09/21 06:16:57;;;;;;;0.82;0.45;;;;;;;19.57;77.38;99442.56;4910599;29;20047;-67
2023/09/21 06:19:23;;;;;;;3.72;0.75;;;;;;;19.24;78.52;99444.88;4913569;29;20414;-66
2023/09/21 06:21:56;;;;;;;3.97;0.68;;;;;;;19.32;78.17;99429.81;4912397;29;20042;-66
2023/09/21 06:24:24;;;;;;;0.75;0.60;;;;;;;19.38;78.31;99436.22;4912060;29;20040;-67
2023/09/21 06:26:52;;;;;;;0.38;0.35;;;;;;;19.57;77.38;99437.88;4914368;29;20490;-67
2023/09/21 06:29:19;;;;;;;0.75;0.60;;;;;;;19.34;78.16;99434.81;4911650;29;20036;-66
2023/09/21 06:31:46;;;;;;;0.57;0.57;;;;;;;19.41;78.16;99431.88;4909510;29;20130;-67
2023/09/21 06:34:18;;;;;;;0.80;0.60;;;;;;;19.44;78.13;99434.47;4910745;29;20607;-66
2023/09/21 06:36:44;;;;;;;1.40;0.70;;;;;;;19.61;77.47;99432.28;4903735;29;20560;-66
2023/09/21 06:39:30;;;;;;;0.38;0.30;;;;;;;19.68;77.23;99434.78;4907356;29;20034;-66
2023/09/21 06:41:55;;;;;;;0.90;0.60;;;;;;;19.77;77.01;99430.13;4872596;29;20159;-67
2023/09/21 06:44:21;;;;;;;1.83;0.70;;;;;;;19.85;75.97;99418.94;4872370;29;20097;-66
2023/09/21 06:46:46;;;;;;;1.60;0.68;;;;;;;19.88;76.10;99424.25;4873681;29;20071;-66
2023/09/21 06:49:12;;;;;;;1.45;0.85;;;;;;;19.94;75.98;99425.19;4871332;29;20117;-65
2023/09/21 06:51:37;;;;;;;2.83;0.82;;;;;;;19.79;75.46;99435.91;4856960;29;20053;-67
2023/09/21 06:54:03;;;;;;;1.00;0.75;;;;;;;19.84;76.13;99431.81;4868925;29;20052;-66
2023/09/21 06:56:31;;;;;;;1.63;0.60;;;;;;;19.72;75.85;99419.03;4857429;29;20403;-65
2023/09/21 06:58:57;;;;;;;1.25;0.60;;;;;;;19.72;75.78;99424.47;4873916;29;20630;-66
2023/09/21 07:01:26;;;;;;;2.03;0.80;;;;;;;19.67;76.44;99420.34;4873115;29;20480;-67
2023/09/21 07:03:51;;;;;;;1.35;0.60;;;;;;;19.90;75.98;99418.38;4872795;29;20079;-66
2023/09/21 07:06:19;;;;;;;1.05;0.50;;;;;;;19.92;75.60;99413.94;4873450;29;20068;-66
2023/09/21 07:08:46;;;;;;;1.48;0.75;;;;;;;20.18;74.75;99417.25;4854960;29;20540;-67
2023/09/21 07:11:12;;;;;;;1.33;0.70;;;;;;;20.28;74.47;99419.63;4872054;29;20092;-67
2023/09/21 07:13:38;;;;;;;1.25;0.70;;;;;;;20.39;73.92;99416.44;4872113;29;20096;-67
2023/09/21 07:16:03;;;;;;;1.10;0.82;;;;;;;20.18;75.02;99420.78;4868962;29;20040;-67
2023/09/21 07:18:29;;;;;;;0.85;0.60;;;;;;;20.09;75.26;99423.44;4886704;29;20040;-67
2023/09/21 07:20:54;;;;;;;2.20;1.10;;;;;;;20.48;74.28;99422.72;4909629;29;20714;-67
2023/09/21 07:23:20;;;;;;;0.80;0.60;;;;;;;20.66;73.58;99419.25;4910307;29;20271;-66
2023/09/21 07:25:45;;;;;;;1.02;0.63;;;;;;;20.98;73.11;99413.22;4913520;29;20028;-66
2023/09/21 07:28:11;;;;;;;1.00;0.40;;;;;;;21.02;72.52;99416.59;4913750;29;20127;-66
2023/09/21 07:30:37;;;;;;;0.80;0.57;;;;;;;21.37;71.87;99412.34;4912704;29;20040;-66
2023/09/21 07:33:04;;;;;;;3.70;0.77;;;;;;;21.64;70.45;99416.25;4912646;29;20127;-67
2023/09/21 07:35:30;;;;;;;1.17;0.70;;;;;;;21.91;68.73;99421.72;4910636;29;20508;-66
2023/09/21 07:37:55;;;;;;;0.60;0.40;;;;;;;22.02;70.34;99419.22;4907052;29;20044;-66
2023/09/21 07:40:21;;;;;;;1.83;0.82;;;;;;;22.33;68.88;99408.75;4914542;29;20127;-66
2023/09/21 07:42:48;;;;;;;2.88;0.70;;;;;;;22.43;67.31;99404.72;4909403;29;20441;-66
2023/09/21 07:45:15;;;;;;;0.93;0.40;;;;;;;22.80;66.23;99419.75;4917247;29;20072;-66
2023/09/21 07:47:41;;;;;;;0.60;0.32;;;;;;;22.71;66.29;99414.34;4916737;29;20446;-66
2023/09/21 07:50:07;;;;;;;7.47;0.73;;;;;;;22.72;64.31;99420.59;4916121;29;20052;-66
2023/09/21 07:52:34;;;;;;;0.90;0.60;;;;;;;22.83;66.09;99410.59;4912608;29;20040;-67
2023/09/21 07:55:03;;;;;;;6.38;0.70;;;;;;;23.13;63.35;99412.19;4911051;29;20032;-66
2023/09/21 07:57:33;;;;;;;1.80;0.60;;;;;;;23.09;64.91;99406.13;4914345;29;20497;-66
2023/09/21 07:59:59;;;;;;;1.52;0.80;;;;;;;23.67;62.33;99410.97;4916784;29;20040;-66
2023/09/21 08:02:25;;;;;;;0.50;0.43;;;;;;;23.55;61.74;99398.28;4909645;29;20044;-66
2023/09/21 08:04:50;;;;;;;2.50;0.85;;;;;;;23.72;62.82;99398.53;4915015;29;20051;-66
2023/09/21 08:07:23;;;;;;;1.42;0.60;;;;;;;24.14;61.87;99405.25;4916511;29;20035;-67
2023/09/21 08:09:48;;;;;;;1.00;0.50;;;;;;;24.33;59.83;99411.28;4913494;29;20050;-66
2023/09/21 08:12:14;;;;;;;1.13;0.50;;;;;;;24.23;60.74;99401.66;4910184;29;20032;-66
2023/09/21 08:14:39;;;;;;;0.82;0.57;;;;;;;24.52;59.98;99395.28;4916495;29;20046;-66
2023/09/21 08:17:04;;;;;;;1.25;0.50;;;;;;;24.64;59.85;99388.69;4916235;29;20036;-66
2023/09/21 08:19:50;;;;;;;0.50;0.50;;;;;;;24.77;59.58;99395.41;4915915;29;20491;-66
2023/09/21 08:22:15;;;;;;;0.68;0.40;;;;;;;24.87;58.97;99388.50;4896833;29;20048;-66
2023/09/21 08:24:41;;;;;;;1.30;0.60;;;;;;;25.20;57.85;99387.38;4913657;29;20581;-66
2023/09/21 08:27:10;;;;;;;1.20;0.63;;;;;;;25.42;58.24;99390.38;4913864;29;20068;-66
2023/09/21 08:29:36;;;;;;;0.98;0.50;;;;;;;25.75;56.24;99388.69;4910103;29;20028;-66
2023/09/21 08:32:02;;;;;;;1.70;0.60;;;;;;;25.71;54.92;99387.38;4912857;29;20522;-66
2023/09/21 08:34:27;;;;;;;1.00;0.70;;;;;;;25.11;56.60;99387.50;4913605;29;20048;-66
2023/09/21 08:36:53;;;;;;;1.85;0.50;;;;;;;25.39;56.67;99388.56;4912354;29;20629;-66
2023/09/21 08:39:19;;;;;;;1.25;0.60;;;;;;;25.53;55.36;99396.75;4913641;29;20048;-66
2023/09/21 08:41:49;;;;;;;0.75;0.47;;;;;;;25.22;56.43;99391.16;4910428;29;20072;-67
2023/09/21 08:44:16;;;;;;;1.42;0.75;;;;;;;25.39;56.33;99394.09;4910263;29;20083;-66
2023/09/21 08:46:44;;;;;;;1.83;0.80;;;;;;;25.06;56.63;99388.97;4914277;29;20096;-66
2023/09/21 08:49:12;;;;;;;0.80;0.45;;;;;;;24.94;57.30;99396.38;4913667;29;20072;-66
2023/09/21 08:51:40;;;;;;;2.28;0.57;;;;;;;25.55;56.53;99397.03;4910773;29;20134;-66
2023/09/21 08:54:11;;;;;;;1.40;0.70;;;;;;;25.65;55.55;99395.63;4896768;29;20048;-66
2023/09/21 08:56:38;;;;;;;1.27;0.55;;;;;;;25.93;55.16;99391.09;4903100;29;20040;-67
2023/09/21 08:59:06;;;;;;;1.00;0.77;;;;;;;26.41;53.31;99405.00;4913067;29;20033;-66
2023/09/21 09:01:32;;;;;;;0.90;0.60;;;;;;;26.29;53.74;99395.13;4914755;29;20762;-66
2023/09/21 09:03:58;;;;;;;1.33;0.68;;;;;;;26.46;53.57;99395.25;4913669;29;20055;-66
2023/09/21 09:06:24;;;;;;;2.15;0.70;;;;;;;26.24;53.67;99393.09;4914179;29;20485;-66
2023/09/21 09:08:51;;;;;;;1.65;0.60;;;;;;;26.75;52.95;99386.63;4915506;29;20044;-66
2023/09/21 09:11:44;;;;;;;0.65;0.63;;;;;;;27.07;52.19;99390.75;4912235;29;20032;-66
2023/09/21 09:14:19;;;;;;;0.80;0.47;;;;;;;27.36;51.86;99386.81;4913939;29;20460;-66
2023/09/21 09:16:49;;;;;;;0.75;0.50;;;;;;;27.48;52.91;99385.59;4912246;29;20063;-66
2023/09/21 09:19:15;;;;;;;1.27;0.77;;;;;;;26.73;52.36;99375.31;4912832;29;20120;-66
2023/09/21 09:21:41;;;;;;;1.02;0.60;;;;;;;27.17;52.17;99380.22;4913891;29;20115;-66
2023/09/21 09:24:08;;;;;;;0.85;0.60;;;;;;;27.29;52.63;99384.53;4913539;29;20052;-67
2023/09/21 09:26:36;;;;;;;0.85;0.50;;;;;;;26.95;52.91;99385.66;4912129;29;20039;-66
2023/09/21 09:29:07;;;;;;;2.35;0.85;;;;;;;26.96;53.81;99378.91;4914469;29;20641;-67
2023/09/21 09:31:40;;;;;;;0.57;0.50;;;;;;;26.93;51.97;99385.41;4914434;29;20066;-66
2023/09/21 09:34:05;;;;;;;1.02;0.55;;;;;;;26.70;53.59;99382.56;4911656;29;20047;-66
2023/09/21 09:36:35;;;;;;;0.63;0.50;;;;;;;27.37;52.27;99380.78;4915609;29;20122;-66
2023/09/21 09:39:00;;;;;;;0.47;0.40;;;;;;;27.44;52.53;99374.00;4915139;29;20044;-66
2023/09/21 09:41:31;;;;;;;0.50;0.47;;;;;;;27.61;53.22;99377.53;4908709;29;20601;-66
2023/09/21 09:43:58;;;;;;;2.47;0.90;;;;;;;27.73;51.68;99373.53;4929598;29;20490;-66
2023/09/21 09:46:26;;;;;;;2.13;0.80;;;;;;;27.76;51.76;99369.00;4911237;29;20032;-66
2023/09/21 09:48:57;;;;;;;1.08;0.55;;;;;;;27.89;50.89;99363.69;4912560;29;20039;-66
2023/09/21 09:51:28;;;;;;;1.10;0.70;;;;;;;27.81;51.52;99365.47;4911484;29;20509;-66
2023/09/21 09:53:56;;;;;;;0.73;0.50;;;;;;;28.02;50.43;99359.19;4913467;29;20044;-66
2023/09/21 09:56:25;;;;;;;2.22;0.55;;;;;;;27.90;50.45;99357.66;4915025;29;20036;-66
2023/09/21 09:58:52;;;;;;;1.20;0.68;;;;;;;27.92;50.47;99349.59;4913289;29;20095;-66
2023/09/21 10:01:20;;;;;;;0.50;0.50;;;;;;;28.05;52.50;99357.44;4914975;29;20040;-66
2023/09/21 10:03:50;;;;;;;1.77;0.57;;;;;;;27.82;49.83;99347.59;4910409;29;20068;-66
2023/09/21 10:06:16;;;;;;;0.85;0.68;;;;;;;27.48;49.66;99347.63;4913398;29;20051;-67
2023/09/21 10:08:42;;;;;;;1.63;0.60;;;;;;;27.51;50.40;99335.53;4914708;29;20024;-66
2023/09/21 10:11:10;;;;;;;0.95;0.45;;;;;;;27.66;50.72;99332.53;4913978;29;20040;-66
2023/09/21 10:13:47;;;;;;;0.75;0.60;;;;;;;27.75;50.14;99337.03;4908934;29;20397;-67
2023/09/21 10:16:13;;;;;;;1.10;0.60;;;;;;;27.56;49.77;99320.91;4910299;29;20051;-67
2023/09/21 10:18:40;;;;;;;1.92;0.70;;;;;;;27.87;50.25;99330.22;4910744;29;20413;-67
2023/09/21 10:21:38;;;;;;;0.70;0.45;;;;;;;28.07;51.24;99327.19;4912650;29;20043;-66
2023/09/21 10:24:04;;;;;;;0.70;0.43;;;;;;;28.16;49.34;99313.84;4913669;29;20107;-67
2023/09/21 10:26:54;;;;;;;1.15;0.60;;;;;;;28.22;49.10;99322.88;4913859;29;20047;-67
2023/09/21 10:29:26;;;;;;;1.08;0.40;;;;;;;28.20;48.48;99306.00;4896394;29;20068;-66
2023/09/21 10:32:03;;;;;;;1.17;0.32;;;;;;;28.22;47.37;99311.78;4902606;29;20426;-66
2023/09/21 10:34:29;;;;;;;0.73;0.50;;;;;;;28.09;47.85;99313.59;4910243;29;20044;-66
2023/09/21 10:37:05;;;;;;;0.90;0.40;;;;;;;28.02;47.26;99309.34;4910707;29;20052;-66
2023/09/21 10:39:31;;;;;;;0.85;0.47;;;;;;;28.13;47.24;99314.84;4911078;29;20036;-67
2023/09/21 10:42:17;;;;;;;0.73;0.50;;;;;;;28.19;48.87;99306.50;4909851;29;20090;-68
2023/09/21 10:44:56;;;;;;;0.63;0.52;;;;;;;28.59;47.99;99294.78;4904756;29;20039;-67
2023/09/21 10:47:38;;;;;;;1.20;0.70;;;;;;;28.80;47.00;99301.50;4904647;29;20140;-67
2023/09/21 10:50:25;;;;;;;0.38;0.20;;;;;;;28.81;47.73;99293.94;4890839;29;20079;-67
2023/09/21 10:52:52;;;;;;;1.45;0.50;;;;;;;28.82;46.57;99295.44;4891394;29;20287;-66
2023/09/21 10:55:19;;;;;;;2.60;0.50;;;;;;;28.87;46.05;99297.44;4892942;29;20397;-66
2023/09/21 10:57:46;;;;;;;0.60;0.40;;;;;;;28.92;46.46;99288.34;4911348;29;20047;-67
2023/09/21 11:00:16;;;;;;;0.63;0.38;;;;;;;28.86;46.17;99293.88;4907814;29;20695;-67
2023/09/21 11:02:44;;;;;;;0.60;0.30;;;;;;;28.71;45.72;99284.41;4906058;29;20110;-66
2023/09/21 11:05:11;;;;;;;1.30;0.85;;;;;;;28.82;46.75;99285.13;4911384;29;20038;-66
2023/09/21 11:07:39;;;;;;;0.70;0.50;;;;;;;28.90;46.28;99290.88;4910838;29;20127;-67
2023/09/21 11:10:06;;;;;;;0.75;0.60;;;;;;;28.49;46.24;99280.44;4912725;29;20115;-66
2023/09/21 11:12:33;;;;;;;1.23;0.57;;;;;;;28.28;45.34;99290.38;4908122;29;20028;-65
2023/09/21 11:14:59;;;;;;;0.63;0.40;;;;;;;28.18;46.03;99289.16;4912905;29;20394;-67
2023/09/21 11:17:24;;;;;;;1.05;0.55;;;;;;;28.39;46.29;99292.34;4914519;29;20047;-67
2023/09/21 11:19:50;;;;;;;0.77;0.52;;;;;;;28.65;46.37;99292.75;4914413;29;20028;-67
2023/09/21 11:22:16;;;;;;;0.70;0.50;;;;;;;28.42;47.28;99275.44;4911072;29;20036;-66
2023/09/21 11:24:42;;;;;;;0.88;0.30;;;;;;;28.79;46.40;99285.38;4915899;29;20047;-66
2023/09/21 11:27:11;;;;;;;1.63;0.50;;;;;;;29.09;45.64;99280.66;4916435;29;20031;-67
2023/09/21 11:29:43;;;;;;;1.08;0.70;;;;;;;29.14;45.77;99294.50;4916280;29;20032;-67
2023/09/21 11:32:12;;;;;;;0.60;0.43;;;;;;;29.27;45.23;99285.56;4913833;29;20115;-67
2023/09/21 11:34:41;;;;;;;0.68;0.57;;;;;;;29.30;44.97;99285.31;4917450;29;20028;-67
2023/09/21 11:37:09;;;;;;;1.20;0.50;;;;;;;29.14;44.88;99280.63;4915553;29;20078;-66